createdAt,value
2023-05-02T00:00:52.714Z,0.00
2023-05-02T00:01:52.654Z,0.00
2023-05-02T00:02:52.792Z,0.00
2023-05-02T00:03:52.764Z,0.00
2023-05-02T00:04:52.595Z,0.00
2023-05-02T00:05:52.630Z,0.00
2023-05-02T00:06:52.691Z,0.00
2023-05-02T00:07:52.562Z,0.00
2023-05-02T00:08:52.550Z,0.00
2023-05-02T00:09:52.564Z,0.00
2023-05-02T00:10:52.582Z,0.00
2023-05-02T00:11:52.539Z,0.00
2023-05-02T00:12:52.535Z,0.00
2023-05-02T00:13:52.514Z,0.00
2023-05-02T00:14:52.516Z,0.00
2023-05-02T00:15:52.489Z,0.00
2023-05-02T00:16:52.526Z,0.00
2023-05-02T00:17:52.524Z,0.00
2023-05-02T00:18:52.488Z,0.00
2023-05-02T00:19:52.470Z,0.00
2023-05-02T00:20:52.462Z,0.00
2023-05-02T00:21:52.445Z,0.00
2023-05-02T00:22:52.414Z,0.00
2023-05-02T00:23:52.417Z,0.00
2023-05-02T00:24:52.412Z,0.00
2023-05-02T00:25:52.407Z,0.00
2023-05-02T00:26:52.399Z,0.00
2023-05-02T00:27:52.373Z,0.00
2023-05-02T00:28:52.382Z,0.00
2023-05-02T00:29:52.381Z,0.00
2023-05-02T00:30:52.373Z,0.00
2023-05-02T00:31:52.364Z,0.00
2023-05-02T00:32:52.374Z,0.00
2023-05-02T00:33:52.348Z,0.00
2023-05-02T00:34:52.324Z,0.00
2023-05-02T00:35:52.367Z,0.00
2023-05-02T00:36:53.276Z,0.00
2023-05-02T00:37:52.275Z,0.00
2023-05-02T00:38:52.264Z,0.00
2023-05-02T00:39:52.253Z,0.00
2023-05-02T00:40:52.276Z,0.00
2023-05-02T00:41:52.263Z,0.00
2023-05-02T00:42:52.252Z,0.00
2023-05-02T00:43:52.212Z,0.00
2023-05-02T00:44:52.197Z,0.00
2023-05-02T00:45:52.299Z,0.00
2023-05-02T00:46:52.218Z,0.00
2023-05-02T00:47:52.202Z,0.00
2023-05-02T00:48:52.176Z,0.00
2023-05-02T00:49:52.146Z,0.00
2023-05-02T00:50:52.146Z,0.00
2023-05-02T00:51:52.174Z,0.00
2023-05-02T00:52:53.144Z,0.00
2023-05-02T00:53:52.128Z,0.00
2023-05-02T00:54:52.132Z,0.00
2023-05-02T00:55:52.100Z,0.00
2023-05-02T00:56:52.089Z,0.00
2023-05-02T00:57:53.084Z,0.00
2023-05-02T00:58:52.088Z,0.00
2023-05-02T00:59:52.053Z,0.00
2023-05-02T01:00:52.091Z,0.00
2023-05-02T01:01:52.062Z,0.00
2023-05-02T01:02:52.205Z,0.00
2023-05-02T01:03:52.206Z,0.00
2023-05-02T01:04:52.022Z,0.00
2023-05-02T01:05:51.999Z,0.00
2023-05-02T01:06:52.110Z,0.00
2023-05-02T01:07:51.956Z,0.00
2023-05-02T01:08:51.975Z,0.00
2023-05-02T01:09:51.960Z,0.00
2023-05-02T01:10:51.971Z,0.00
2023-05-02T01:11:51.933Z,0.00
2023-05-02T01:12:51.918Z,0.00
2023-05-02T01:13:51.929Z,0.00
2023-05-02T01:14:51.937Z,0.00
2023-05-02T01:15:52.004Z,0.00
2023-05-02T01:16:51.908Z,0.00
2023-05-02T01:17:51.952Z,0.00
2023-05-02T01:18:51.854Z,0.00
2023-05-02T01:19:51.848Z,0.00
2023-05-02T01:20:51.862Z,0.00
2023-05-02T01:21:51.819Z,0.00
2023-05-02T01:22:51.806Z,0.00
2023-05-02T01:23:51.812Z,0.00
2023-05-02T01:24:51.802Z,0.00
2023-05-02T01:25:51.814Z,0.00
2023-05-02T01:26:51.797Z,0.00
2023-05-02T01:27:51.767Z,0.00
2023-05-02T01:28:51.760Z,0.00
2023-05-02T01:29:51.751Z,0.00
2023-05-02T01:30:51.781Z,0.00
2023-05-02T01:31:51.754Z,0.00
2023-05-02T01:32:51.749Z,0.00
2023-05-02T01:33:51.708Z,0.00
2023-05-02T01:34:51.704Z,0.00
2023-05-02T01:35:51.715Z,0.00
2023-05-02T01:36:51.692Z,0.00
2023-05-02T01:37:52.690Z,0.00
2023-05-02T01:38:51.719Z,0.00
2023-05-02T01:39:51.651Z,0.00
2023-05-02T01:40:51.647Z,0.00
2023-05-02T01:41:51.694Z,0.00
2023-05-02T01:42:51.611Z,0.00
2023-05-02T01:43:51.620Z,0.00
2023-05-02T01:44:51.588Z,0.00
2023-05-02T01:45:51.587Z,0.00
2023-05-02T01:46:51.667Z,0.00
2023-05-02T01:47:51.632Z,0.00
2023-05-02T01:48:51.558Z,0.00
2023-05-02T01:49:51.566Z,0.00
2023-05-02T01:50:51.573Z,0.00
2023-05-02T01:51:52.553Z,0.00
2023-05-02T01:52:51.564Z,0.00
2023-05-02T01:53:51.541Z,0.00
2023-05-02T01:54:51.514Z,0.00
2023-05-02T01:55:51.493Z,0.00
2023-05-02T01:56:51.565Z,0.00
2023-05-02T01:57:51.479Z,0.00
2023-05-02T01:58:51.460Z,0.00
2023-05-02T01:59:51.460Z,0.00
2023-05-02T02:00:51.500Z,0.00
2023-05-02T02:01:51.454Z,0.00
2023-05-02T02:02:51.459Z,0.00
2023-05-02T02:03:51.554Z,0.00
2023-05-02T02:04:51.418Z,0.00
2023-05-02T02:05:51.432Z,0.00
2023-05-02T02:06:51.396Z,0.00
2023-05-02T02:07:51.427Z,0.00
2023-05-02T02:08:51.353Z,0.00
2023-05-02T02:09:51.414Z,0.00
2023-05-02T02:10:51.346Z,0.00
2023-05-02T02:11:51.439Z,0.00
2023-05-02T02:12:51.318Z,0.00
2023-05-02T02:13:51.316Z,0.00
2023-05-02T02:14:51.344Z,0.00
2023-05-02T02:15:51.304Z,0.00
2023-05-02T02:16:51.323Z,0.00
2023-05-02T02:17:51.291Z,0.00
2023-05-02T02:18:51.275Z,0.00
2023-05-02T02:19:51.266Z,0.00
2023-05-02T02:20:51.262Z,0.00
2023-05-02T02:21:51.233Z,0.00
2023-05-02T02:22:51.226Z,0.00
2023-05-02T02:23:51.219Z,0.00
2023-05-02T02:24:52.458Z,0.00
2023-05-02T02:25:51.230Z,0.00
2023-05-02T02:26:51.194Z,0.00
2023-05-02T02:27:51.177Z,0.00
2023-05-02T02:28:51.161Z,0.00
2023-05-02T02:29:51.157Z,0.00
2023-05-02T02:30:51.189Z,0.00
2023-05-02T02:31:51.133Z,0.00
2023-05-02T02:32:52.210Z,0.00
2023-05-02T02:33:51.109Z,0.00
2023-05-02T02:34:51.088Z,0.00
2023-05-02T02:35:51.109Z,0.00
2023-05-02T02:36:51.096Z,0.00
2023-05-02T02:37:51.069Z,0.00
2023-05-02T02:38:51.091Z,0.00
2023-05-02T02:39:51.051Z,0.00
2023-05-02T02:40:51.042Z,0.00
2023-05-02T02:41:51.044Z,0.00
2023-05-02T02:42:51.027Z,0.00
2023-05-02T02:43:51.039Z,0.00
2023-05-02T02:44:51.021Z,0.00
2023-05-02T02:45:51.072Z,0.00
2023-05-02T02:46:50.986Z,0.00
2023-05-02T02:47:51.052Z,0.00
2023-05-02T02:48:50.989Z,0.00
2023-05-02T02:49:50.997Z,0.00
2023-05-02T02:50:50.949Z,0.00
2023-05-02T02:51:51.007Z,0.00
2023-05-02T02:52:50.940Z,0.00
2023-05-02T02:53:51.011Z,0.00
2023-05-02T02:54:50.951Z,0.00
2023-05-02T02:55:51.001Z,0.00
2023-05-02T02:56:50.904Z,0.00
2023-05-02T02:57:50.891Z,0.00
2023-05-02T02:58:50.891Z,0.00
2023-05-02T02:59:50.883Z,0.00
2023-05-02T03:00:50.888Z,0.00
2023-05-02T03:01:50.872Z,0.00
2023-05-02T03:02:50.897Z,0.00
2023-05-02T03:03:50.921Z,0.00
2023-05-02T03:04:50.828Z,0.00
2023-05-02T03:05:50.830Z,0.00
2023-05-02T03:06:50.849Z,0.00
2023-05-02T03:07:50.823Z,0.00
2023-05-02T03:08:50.786Z,0.00
2023-05-02T03:09:50.782Z,0.00
2023-05-02T03:10:50.753Z,0.00
2023-05-02T03:11:50.740Z,0.00
2023-05-02T03:12:50.749Z,0.00
2023-05-02T03:13:50.739Z,0.00
2023-05-02T03:14:50.722Z,0.00
2023-05-02T03:15:50.730Z,4.00
2023-05-02T03:16:50.704Z,4.00
2023-05-02T03:18:22.603Z,4.00
2023-05-02T03:18:50.631Z,4.00
2023-05-02T03:19:50.613Z,0.00
2023-05-02T03:20:51.617Z,0.00
2023-05-02T03:21:50.622Z,4.00
2023-05-02T03:22:50.599Z,4.00
2023-05-02T03:23:50.588Z,4.00
2023-05-02T03:24:50.568Z,4.00
2023-05-02T03:25:50.559Z,8.00
2023-05-02T03:26:50.610Z,4.00
2023-05-02T03:27:50.644Z,8.00
2023-05-02T03:28:50.537Z,8.00
2023-05-02T03:29:50.527Z,8.00
2023-05-02T03:30:50.517Z,8.00
2023-05-02T03:31:50.635Z,12.00
2023-05-02T03:32:50.589Z,12.00
2023-05-02T03:33:50.484Z,16.00
2023-05-02T03:34:50.487Z,16.00
2023-05-02T03:35:50.471Z,20.00
2023-05-02T03:36:50.473Z,24.00
2023-05-02T03:37:50.480Z,24.00
2023-05-02T03:38:50.445Z,28.00
2023-05-02T03:39:50.424Z,32.00
2023-05-02T03:40:50.423Z,36.00
2023-05-02T03:41:50.458Z,44.00
2023-05-02T03:42:50.402Z,52.00
2023-05-02T03:43:50.380Z,56.00
2023-05-02T03:44:50.373Z,64.00
2023-05-02T03:45:50.369Z,68.00
2023-05-02T03:46:50.509Z,76.00
2023-05-02T03:47:50.421Z,80.00
2023-05-02T03:48:50.337Z,88.00
2023-05-02T03:49:50.335Z,100.00
2023-05-02T03:50:50.326Z,112.00
2023-05-02T03:51:50.310Z,120.00
2023-05-02T03:52:50.356Z,128.00
2023-05-02T03:53:50.282Z,140.00
2023-05-02T03:54:50.290Z,156.00
2023-05-02T03:55:50.270Z,164.00
2023-05-02T03:56:50.256Z,180.00
2023-05-02T03:57:50.243Z,188.00
2023-05-02T03:58:50.258Z,196.00
2023-05-02T03:59:50.228Z,196.00
2023-05-02T04:00:50.237Z,188.00
2023-05-02T04:01:50.357Z,184.00
2023-05-02T04:02:50.454Z,196.00
2023-05-02T04:03:50.219Z,208.00
2023-05-02T04:04:50.201Z,228.00
2023-05-02T04:05:50.189Z,240.00
2023-05-02T04:06:50.272Z,252.00
2023-05-02T04:07:50.149Z,264.00
2023-05-02T04:08:50.136Z,280.00
2023-05-02T04:09:50.160Z,308.00
2023-05-02T04:10:50.157Z,340.00
2023-05-02T04:11:50.106Z,380.00
2023-05-02T04:12:50.089Z,424.00
2023-05-02T04:13:52.587Z,480.00
2023-05-02T04:14:50.080Z,508.00
2023-05-02T04:15:50.182Z,492.00
2023-05-02T04:16:50.152Z,480.00
2023-05-02T04:17:50.086Z,484.00
2023-05-02T04:18:50.047Z,492.00
2023-05-02T04:19:50.030Z,496.00
2023-05-02T04:20:50.021Z,528.00
2023-05-02T04:21:50.030Z,600.00
2023-05-02T04:22:50.008Z,704.00
2023-05-02T04:23:49.987Z,856.00
2023-05-02T04:24:49.982Z,1016.00
2023-05-02T04:25:49.973Z,1144.00
2023-05-02T04:26:50.004Z,1256.00
2023-05-02T04:27:50.030Z,1356.00
2023-05-02T04:28:49.942Z,1404.00
2023-05-02T04:29:50.927Z,1360.00
2023-05-02T04:30:49.997Z,1260.00
2023-05-02T04:31:49.954Z,1212.00
2023-05-02T04:32:49.963Z,1236.00
2023-05-02T04:33:49.906Z,1300.00
2023-05-02T04:34:49.876Z,1356.00
2023-05-02T04:35:49.882Z,1376.00
2023-05-02T04:36:49.884Z,1392.00
2023-05-02T04:37:49.857Z,1392.00
2023-05-02T04:38:49.837Z,1384.00
2023-05-02T04:39:49.828Z,1364.00
2023-05-02T04:40:49.815Z,1356.00
2023-05-02T04:41:49.894Z,1380.00
2023-05-02T04:42:49.795Z,1416.00
2023-05-02T04:43:49.805Z,1424.00
2023-05-02T04:44:49.781Z,1432.00
2023-05-02T04:45:49.808Z,1404.00
2023-05-02T04:46:49.866Z,1316.00
2023-05-02T04:47:49.961Z,1276.00
2023-05-02T04:48:49.745Z,1264.00
2023-05-02T04:49:49.719Z,1176.00
2023-05-02T04:50:49.715Z,1080.00
2023-05-02T04:51:49.722Z,1032.00
2023-05-02T04:52:49.725Z,1016.00
2023-05-02T04:53:49.689Z,1032.00
2023-05-02T04:54:49.705Z,1088.00
2023-05-02T04:55:49.696Z,1160.00
2023-05-02T04:56:49.659Z,1112.00
2023-05-02T04:57:49.682Z,1108.00
2023-05-02T04:58:49.657Z,1152.00
2023-05-02T04:59:49.653Z,1236.00
2023-05-02T05:00:49.634Z,1304.00
2023-05-02T05:01:49.636Z,1396.00
2023-05-02T05:02:49.685Z,1520.00
2023-05-02T05:03:49.753Z,1668.00
2023-05-02T05:04:49.596Z,1816.00
2023-05-02T05:05:49.568Z,2088.00
2023-05-02T05:06:49.619Z,2332.00
2023-05-02T05:07:49.552Z,2608.00
2023-05-02T05:08:49.574Z,2888.00
2023-05-02T05:09:51.179Z,3156.00
2023-05-02T05:10:49.527Z,3508.00
2023-05-02T05:11:49.513Z,3924.00
2023-05-02T05:12:49.509Z,4392.00
2023-05-02T05:13:49.512Z,4872.00
2023-05-02T05:14:49.483Z,5296.00
2023-05-02T05:15:49.523Z,5700.00
2023-05-02T05:16:49.608Z,6216.00
2023-05-02T05:17:49.469Z,6584.00
2023-05-02T05:18:49.487Z,6724.00
2023-05-02T05:19:49.455Z,6552.00
2023-05-02T05:20:49.431Z,6444.00
2023-05-02T05:21:49.432Z,6224.00
2023-05-02T05:22:49.403Z,5632.00
2023-05-02T05:23:49.407Z,5032.00
2023-05-02T05:24:49.404Z,5784.00
2023-05-02T05:25:49.382Z,4008.00
2023-05-02T05:26:49.376Z,2776.00
2023-05-02T05:27:49.355Z,2632.00
2023-05-02T05:28:49.371Z,2532.00
2023-05-02T05:29:49.367Z,2444.00
2023-05-02T05:30:49.327Z,2472.00
2023-05-02T05:31:49.416Z,2584.00
2023-05-02T05:32:49.333Z,2776.00
2023-05-02T05:33:49.398Z,3100.00
2023-05-02T05:34:49.285Z,3656.00
2023-05-02T05:35:49.274Z,4216.00
2023-05-02T05:36:49.278Z,4524.00
2023-05-02T05:37:49.249Z,4316.00
2023-05-02T05:38:49.266Z,3972.00
2023-05-02T05:39:49.231Z,3868.00
2023-05-02T05:40:49.246Z,3808.00
2023-05-02T05:41:49.203Z,3836.00
2023-05-02T05:42:49.201Z,3792.00
2023-05-02T05:43:49.240Z,3840.00
2023-05-02T05:44:49.192Z,3736.00
2023-05-02T05:45:49.168Z,3648.00
2023-05-02T05:46:49.194Z,3456.00
2023-05-02T05:47:49.963Z,3328.00
2023-05-02T05:48:49.193Z,3412.00
2023-05-02T05:49:49.150Z,3596.00
2023-05-02T05:50:49.126Z,3644.00
2023-05-02T05:51:49.132Z,3868.00
2023-05-02T05:52:49.106Z,4124.00
2023-05-02T05:53:49.103Z,4284.00
2023-05-02T05:54:49.127Z,4896.00
2023-05-02T05:55:49.077Z,5464.00
2023-05-02T05:56:49.092Z,6100.00
2023-05-02T05:57:49.051Z,6496.00
2023-05-02T05:58:49.038Z,6720.00
2023-05-02T05:59:49.030Z,6876.00
2023-05-02T06:00:49.043Z,7260.00
2023-05-02T06:01:49.033Z,8196.00
2023-05-02T06:02:49.150Z,8884.00
2023-05-02T06:03:49.066Z,9216.00
2023-05-02T06:04:49.016Z,9076.00
2023-05-02T06:05:48.980Z,9268.00
2023-05-02T06:06:49.012Z,10168.00
2023-05-02T06:07:49.041Z,11128.00
2023-05-02T06:08:48.958Z,10732.00
2023-05-02T06:09:48.954Z,9820.00
2023-05-02T06:10:48.937Z,9856.00
2023-05-02T06:11:48.920Z,10092.00
2023-05-02T06:12:49.359Z,10492.00
2023-05-02T06:13:49.907Z,10204.00
2023-05-02T06:14:48.886Z,9640.00
2023-05-02T06:15:48.979Z,10376.00
2023-05-02T06:16:48.885Z,11844.00
2023-05-02T06:17:48.930Z,13696.00
2023-05-02T06:18:48.906Z,16480.00
2023-05-02T06:19:48.840Z,21024.00
2023-05-02T06:20:48.828Z,23392.00
2023-05-02T06:21:48.816Z,24832.00
2023-05-02T06:22:48.844Z,21568.00
2023-05-02T06:23:48.878Z,15216.00
2023-05-02T06:24:48.792Z,16384.00
2023-05-02T06:25:48.785Z,15872.00
2023-05-02T06:26:48.794Z,11772.00
2023-05-02T06:27:48.773Z,10900.00
2023-05-02T06:28:48.770Z,10780.00
2023-05-02T06:29:48.774Z,10608.00
2023-05-02T06:30:48.728Z,10576.00
2023-05-02T06:31:48.750Z,11140.00
2023-05-02T06:32:48.731Z,11796.00
2023-05-02T06:33:48.739Z,12648.00
2023-05-02T06:34:48.699Z,13468.00
2023-05-02T06:35:48.693Z,14888.00
2023-05-02T06:36:48.690Z,14580.00
2023-05-02T06:37:48.660Z,15608.00
2023-05-02T06:38:48.709Z,17216.00
2023-05-02T06:39:48.672Z,18688.00
2023-05-02T06:40:48.645Z,19488.00
2023-05-02T06:41:48.620Z,20512.00
2023-05-02T06:42:48.611Z,16608.00
2023-05-02T06:43:48.629Z,16152.00
2023-05-02T06:44:49.582Z,16992.00
2023-05-02T06:45:48.619Z,18784.00
2023-05-02T06:46:48.632Z,19712.00
2023-05-02T06:47:48.587Z,18496.00
2023-05-02T06:48:48.630Z,18432.00
2023-05-02T06:49:48.541Z,17792.00
2023-05-02T06:50:48.562Z,17568.00
2023-05-02T06:51:48.519Z,16720.00
2023-05-02T06:52:48.519Z,17664.00
2023-05-02T06:53:48.552Z,20224.00
2023-05-02T06:54:48.484Z,23712.00
2023-05-02T06:55:48.501Z,25632.00
2023-05-02T06:56:48.468Z,45856.00
2023-05-02T06:57:48.457Z,22400.00
2023-05-02T06:58:48.480Z,22208.00
2023-05-02T06:59:48.525Z,22592.00
2023-05-02T07:00:48.456Z,21600.00
2023-05-02T07:01:48.420Z,21152.00
2023-05-02T07:02:48.451Z,18976.00
2023-05-02T07:03:48.493Z,17248.00
2023-05-02T07:04:48.447Z,16800.00
2023-05-02T07:05:48.377Z,16768.00
2023-05-02T07:06:48.504Z,16220.00
2023-05-02T07:07:48.375Z,15544.00
2023-05-02T07:08:48.379Z,15224.00
2023-05-02T07:09:48.338Z,15148.00
2023-05-02T07:10:48.347Z,15544.00
2023-05-02T07:11:48.314Z,16424.00
2023-05-02T07:12:48.300Z,18176.00
2023-05-02T07:13:48.320Z,20416.00
2023-05-02T07:14:48.288Z,19904.00
2023-05-02T07:15:48.289Z,18272.00
2023-05-02T07:16:48.314Z,17984.00
2023-05-02T07:17:48.275Z,17504.00
2023-05-02T07:18:48.247Z,16704.00
2023-05-02T07:19:48.258Z,16108.00
2023-05-02T07:20:48.228Z,16380.00
2023-05-02T07:21:48.216Z,17568.00
2023-05-02T07:22:48.224Z,17408.00
2023-05-02T07:23:48.204Z,17056.00
2023-05-02T07:24:48.207Z,17056.00
2023-05-02T07:25:48.181Z,16896.00
2023-05-02T07:26:48.176Z,16832.00
2023-05-02T07:27:48.172Z,17440.00
2023-05-02T07:28:48.173Z,17184.00
2023-05-02T07:29:48.139Z,16052.00
2023-05-02T07:30:48.120Z,16232.00
2023-05-02T07:31:48.208Z,19104.00
2023-05-02T07:32:48.165Z,17600.00
2023-05-02T07:33:48.115Z,15740.00
2023-05-02T07:34:48.090Z,15120.00
2023-05-02T07:35:48.119Z,15132.00
2023-05-02T07:36:48.083Z,14976.00
2023-05-02T07:37:48.080Z,36672.00
2023-05-02T07:38:48.044Z,14864.00
2023-05-02T07:39:48.038Z,13088.00
2023-05-02T07:40:48.048Z,11592.00
2023-05-02T07:41:48.020Z,10612.00
2023-05-02T07:42:48.048Z,9536.00
2023-05-02T07:43:48.026Z,8748.00
2023-05-02T07:44:47.987Z,8092.00
2023-05-02T07:45:48.028Z,7468.00
2023-05-02T07:46:48.180Z,6936.00
2023-05-02T07:47:47.973Z,6508.00
2023-05-02T07:48:47.968Z,6228.00
2023-05-02T07:49:47.945Z,5896.00
2023-05-02T07:50:47.927Z,5548.00
2023-05-02T07:51:47.944Z,5280.00
2023-05-02T07:52:47.941Z,5076.00
2023-05-02T07:53:47.906Z,4948.00
2023-05-02T07:54:47.891Z,4920.00
2023-05-02T07:55:47.908Z,4868.00
2023-05-02T07:56:47.895Z,4772.00
2023-05-02T07:57:47.881Z,4648.00
2023-05-02T07:58:47.848Z,4460.00
2023-05-02T07:59:47.845Z,4276.00
2023-05-02T08:00:47.873Z,4048.00
2023-05-02T08:01:47.839Z,3752.00
2023-05-02T08:02:47.933Z,3512.00
2023-05-02T08:03:48.040Z,3404.00
2023-05-02T08:04:47.859Z,3452.00
2023-05-02T08:05:47.775Z,3540.00
2023-05-02T08:06:47.800Z,3612.00
2023-05-02T08:07:47.755Z,3760.00
2023-05-02T08:08:47.768Z,4084.00
2023-05-02T08:09:47.739Z,4652.00
2023-05-02T08:10:47.735Z,5412.00
2023-05-02T08:11:47.737Z,6432.00
2023-05-02T08:12:47.703Z,7420.00
2023-05-02T08:13:47.700Z,8396.00
2023-05-02T08:14:47.684Z,9480.00
2023-05-02T08:15:47.906Z,10884.00
2023-05-02T08:16:47.743Z,11724.00
2023-05-02T08:17:47.721Z,11936.00
2023-05-02T08:18:47.667Z,10776.00
2023-05-02T08:19:47.639Z,9968.00
2023-05-02T08:20:47.765Z,10092.00
2023-05-02T08:21:47.625Z,10408.00
2023-05-02T08:22:47.607Z,10924.00
2023-05-02T08:23:47.607Z,11800.00
2023-05-02T08:24:47.639Z,12940.00
2023-05-02T08:25:47.602Z,14860.00
2023-05-02T08:26:47.580Z,28832.00
2023-05-02T08:27:47.561Z,29184.00
2023-05-02T08:28:47.573Z,24736.00
2023-05-02T08:29:47.546Z,32576.00
2023-05-02T08:30:47.536Z,32128.00
2023-05-02T08:31:47.550Z,32736.00
2023-05-02T08:32:47.621Z,32832.00
2023-05-02T08:33:47.520Z,22432.00
2023-05-02T08:34:47.528Z,32768.00
2023-05-02T08:35:47.511Z,19488.00
2023-05-02T08:36:47.496Z,17472.00
2023-05-02T08:37:47.507Z,15000.00
2023-05-02T08:38:47.507Z,13580.00
2023-05-02T08:39:47.468Z,14244.00
2023-05-02T08:40:47.445Z,15460.00
2023-05-02T08:41:47.454Z,15676.00
2023-05-02T08:42:47.424Z,15484.00
2023-05-02T08:43:47.435Z,18368.00
2023-05-02T08:44:47.393Z,35520.00
2023-05-02T08:45:47.383Z,31872.00
2023-05-02T08:46:47.427Z,34912.00
2023-05-02T08:47:47.409Z,28864.00
2023-05-02T08:48:47.360Z,33792.00
2023-05-02T08:49:47.342Z,37280.00
2023-05-02T08:50:47.384Z,23168.00
2023-05-02T08:51:47.350Z,19808.00
2023-05-02T08:52:47.310Z,17824.00
2023-05-02T08:53:47.304Z,16328.00
2023-05-02T08:54:47.363Z,15152.00
2023-05-02T08:55:47.278Z,14128.00
2023-05-02T08:56:47.290Z,13180.00
2023-05-02T08:57:47.279Z,12456.00
2023-05-02T08:58:47.252Z,11812.00
2023-05-02T08:59:47.366Z,11312.00
2023-05-02T09:00:47.261Z,10744.00
2023-05-02T09:01:47.284Z,10024.00
2023-05-02T09:02:47.306Z,9360.00
2023-05-02T09:03:47.232Z,8920.00
2023-05-02T09:04:47.262Z,8796.00
2023-05-02T09:05:47.180Z,8872.00
2023-05-02T09:06:47.257Z,8836.00
2023-05-02T09:07:47.174Z,8716.00
2023-05-02T09:08:47.172Z,8508.00
2023-05-02T09:09:47.139Z,8572.00
2023-05-02T09:10:47.135Z,8628.00
2023-05-02T09:11:47.126Z,8708.00
2023-05-02T09:12:47.114Z,8776.00
2023-05-02T09:13:47.122Z,10180.00
2023-05-02T09:14:47.195Z,24864.00
2023-05-02T09:15:47.077Z,25440.00
2023-05-02T09:16:47.087Z,25632.00
2023-05-02T09:18:19.009Z,26880.00
2023-05-02T09:18:47.074Z,27744.00
2023-05-02T09:19:47.069Z,27776.00
2023-05-02T09:20:47.092Z,28736.00
2023-05-02T09:21:47.019Z,28960.00
2023-05-02T09:22:47.013Z,25312.00
2023-05-02T09:23:47.046Z,25536.00
2023-05-02T09:24:46.992Z,14424.00
2023-05-02T09:25:46.993Z,14676.00
2023-05-02T09:26:47.005Z,14040.00
2023-05-02T09:27:47.010Z,13548.00
2023-05-02T09:28:46.963Z,12968.00
2023-05-02T09:29:46.952Z,12624.00
2023-05-02T09:30:47.062Z,12760.00
2023-05-02T09:31:55.664Z,13456.00
2023-05-02T09:32:48.969Z,14556.00
2023-05-02T09:33:46.927Z,15524.00
2023-05-02T09:34:46.930Z,22752.00
2023-05-02T09:35:47.887Z,16544.00
2023-05-02T09:36:46.918Z,14884.00
2023-05-02T09:37:46.869Z,13804.00
2023-05-02T09:38:46.912Z,13060.00
2023-05-02T09:39:46.853Z,12436.00
2023-05-02T09:40:46.891Z,11680.00
2023-05-02T09:41:46.875Z,10968.00
2023-05-02T09:42:46.854Z,10364.00
2023-05-02T09:43:46.816Z,9836.00
2023-05-02T09:44:46.792Z,9308.00
2023-05-02T09:45:46.816Z,8844.00
2023-05-02T09:46:47.798Z,8480.00
2023-05-02T09:47:46.792Z,8216.00
2023-05-02T09:48:46.785Z,8076.00
2023-05-02T09:49:47.002Z,8140.00
2023-05-02T09:50:46.733Z,8484.00
2023-05-02T09:51:46.769Z,8988.00
2023-05-02T09:52:46.761Z,9664.00
2023-05-02T09:53:46.720Z,10516.00
2023-05-02T09:54:46.986Z,11196.00
2023-05-02T09:55:46.708Z,11656.00
2023-05-02T09:56:46.681Z,12072.00
2023-05-02T09:57:46.700Z,12488.00
2023-05-02T09:58:46.787Z,12856.00
2023-05-02T09:59:46.648Z,13140.00
2023-05-02T10:00:46.664Z,13392.00
2023-05-02T10:01:46.658Z,13636.00
2023-05-02T10:02:46.716Z,13740.00
2023-05-02T10:03:46.676Z,13800.00
2023-05-02T10:04:46.649Z,13900.00
2023-05-02T10:05:46.637Z,14048.00
2023-05-02T10:06:46.731Z,14192.00
2023-05-02T10:07:46.654Z,14304.00
2023-05-02T10:08:46.563Z,14420.00
2023-05-02T10:09:46.618Z,14496.00
2023-05-02T10:10:46.557Z,14648.00
2023-05-02T10:11:46.550Z,14832.00
2023-05-02T10:12:46.536Z,15044.00
2023-05-02T10:13:46.581Z,15156.00
2023-05-02T10:14:46.508Z,15168.00
2023-05-02T10:15:46.546Z,14908.00
2023-05-02T10:16:46.495Z,14416.00
2023-05-02T10:17:46.549Z,14060.00
2023-05-02T10:18:46.484Z,13672.00
2023-05-02T10:19:46.440Z,13076.00
2023-05-02T10:20:46.473Z,12404.00
2023-05-02T10:21:46.462Z,11736.00
2023-05-02T10:22:46.741Z,10996.00
2023-05-02T10:23:46.480Z,10220.00
2023-05-02T10:24:46.452Z,9352.00
2023-05-02T10:25:46.431Z,8424.00
2023-05-02T10:26:46.391Z,7628.00
2023-05-02T10:27:46.383Z,7012.00
2023-05-02T10:28:46.352Z,6540.00
2023-05-02T10:29:46.382Z,6136.00
2023-05-02T10:30:46.423Z,5836.00
2023-05-02T10:31:46.399Z,5624.00
2023-05-02T10:32:46.359Z,5500.00
2023-05-02T10:33:46.332Z,5396.00
2023-05-02T10:34:46.307Z,5352.00
2023-05-02T10:35:46.344Z,5340.00
2023-05-02T10:36:46.286Z,5336.00
2023-05-02T10:37:46.295Z,5336.00
2023-05-02T10:38:46.267Z,5352.00
2023-05-02T10:39:46.260Z,5384.00
2023-05-02T10:40:46.283Z,5416.00
2023-05-02T10:41:46.256Z,5492.00
2023-05-02T10:42:46.303Z,5584.00
2023-05-02T10:43:46.217Z,5676.00
2023-05-02T10:44:46.231Z,5812.00
2023-05-02T10:45:46.220Z,6004.00
2023-05-02T10:46:46.214Z,6244.00
2023-05-02T10:47:46.230Z,6504.00
2023-05-02T10:48:46.177Z,6772.00
2023-05-02T10:49:46.169Z,7060.00
2023-05-02T10:50:46.132Z,7360.00
2023-05-02T10:51:46.172Z,7692.00
2023-05-02T10:52:46.133Z,8072.00
2023-05-02T10:53:46.178Z,8448.00
2023-05-02T10:54:46.386Z,8816.00
2023-05-02T10:55:46.116Z,9176.00
2023-05-02T10:56:46.121Z,9544.00
2023-05-02T10:57:46.062Z,9980.00
2023-05-02T10:58:46.082Z,10512.00
2023-05-02T10:59:46.068Z,11048.00
2023-05-02T11:00:46.134Z,11532.00
2023-05-02T11:01:46.113Z,12036.00
2023-05-02T11:02:46.129Z,12396.00
2023-05-02T11:03:46.005Z,12616.00
2023-05-02T11:04:46.011Z,12848.00
2023-05-02T11:05:45.986Z,13112.00
2023-05-02T11:06:46.035Z,13376.00
2023-05-02T11:07:45.984Z,13536.00
2023-05-02T11:08:45.963Z,13508.00
2023-05-02T11:09:45.968Z,13540.00
2023-05-02T11:10:45.957Z,13464.00
2023-05-02T11:11:45.930Z,13216.00
2023-05-02T11:12:45.926Z,12528.00
2023-05-02T11:13:45.903Z,12080.00
2023-05-02T11:14:45.929Z,11804.00
2023-05-02T11:15:45.923Z,11340.00
2023-05-02T11:16:45.928Z,10744.00
2023-05-02T11:17:45.883Z,10364.00
2023-05-02T11:18:45.874Z,10052.00
2023-05-02T11:19:45.917Z,9740.00
2023-05-02T11:20:45.911Z,9424.00
2023-05-02T11:21:45.832Z,9272.00
2023-05-02T11:22:45.803Z,9056.00
2023-05-02T11:23:45.810Z,8772.00
2023-05-02T11:24:45.813Z,8668.00
2023-05-02T11:25:45.791Z,8644.00
2023-05-02T11:26:45.801Z,8516.00
2023-05-02T11:27:45.788Z,8292.00
2023-05-02T11:28:45.756Z,7964.00
2023-05-02T11:29:45.776Z,7664.00
2023-05-02T11:30:45.722Z,7408.00
2023-05-02T11:31:45.758Z,7100.00
2023-05-02T11:32:45.839Z,6760.00
2023-05-02T11:33:45.698Z,6364.00
2023-05-02T11:34:45.716Z,5900.00
2023-05-02T11:35:46.710Z,5604.00
2023-05-02T11:36:45.684Z,5364.00
2023-05-02T11:37:45.662Z,5076.00
2023-05-02T11:38:45.656Z,4928.00
2023-05-02T11:39:45.635Z,4724.00
2023-05-02T11:40:45.636Z,4568.00
2023-05-02T11:41:45.639Z,4484.00
2023-05-02T11:42:45.622Z,4464.00
2023-05-02T11:43:45.650Z,4452.00
2023-05-02T11:44:45.633Z,4408.00
2023-05-02T11:45:45.641Z,4328.00
2023-05-02T11:46:45.744Z,4028.00
2023-05-02T11:47:45.633Z,3640.00
2023-05-02T11:48:45.553Z,3256.00
2023-05-02T11:49:45.548Z,2944.00
2023-05-02T11:50:49.794Z,2716.00
2023-05-02T11:51:46.533Z,2580.00
2023-05-02T11:52:45.503Z,2564.00
2023-05-02T11:53:46.519Z,2572.00
2023-05-02T11:54:45.492Z,2600.00
2023-05-02T11:55:45.509Z,2652.00
2023-05-02T11:56:45.532Z,2740.00
2023-05-02T11:57:45.493Z,2856.00
2023-05-02T11:58:45.478Z,2960.00
2023-05-02T11:59:45.483Z,3060.00
2023-05-02T12:00:45.427Z,3148.00
2023-05-02T12:01:45.439Z,3224.00
2023-05-02T12:02:45.549Z,3292.00
2023-05-02T12:03:45.819Z,3368.00
2023-05-02T12:04:45.392Z,3444.00
2023-05-02T12:05:45.438Z,3500.00
2023-05-02T12:06:45.466Z,3528.00
2023-05-02T12:07:45.438Z,3512.00
2023-05-02T12:08:45.411Z,3480.00
2023-05-02T12:09:45.411Z,3456.00
2023-05-02T12:10:45.341Z,3452.00
2023-05-02T12:11:45.398Z,3472.00
2023-05-02T12:12:45.329Z,3508.00
2023-05-02T12:13:45.344Z,3568.00
2023-05-02T12:14:45.290Z,3640.00
2023-05-02T12:15:45.313Z,3716.00
2023-05-02T12:16:45.372Z,3808.00
2023-05-02T12:17:45.339Z,3900.00
2023-05-02T12:18:45.282Z,4004.00
2023-05-02T12:19:45.286Z,4104.00
2023-05-02T12:20:45.236Z,4220.00